Owasa, Iowa
Current Conditions -  °F | °C
As of 8:15 AM on Friday 19 Dec 2014 (Local Time) from KIFA Reporting Station
Overcast Overcast  
Wind Chill: 18°   Ceiling: 800
Heat Index: 26°   Visibility: 10mi
Dew Point: 23°   Wind: 7mph
Humidity: 89%   Direction: 140°SE
Pressure: 30.26"   Gusts: NA
Location:  42.4829°N, 93.2802°W
Report Text: KIFA 191415Z AUTO 14006KT 10SM OVC008 M03/M05 A3026 RMK AO2 T10351050
Loading
Personal Weather Stations






























Interactive Weather Map New forecast layout! Learn more

10-Day Weather Forecast

Advertisements
Track Severe Weather on mobile